Time;durP1;ratioP1;P1;durP2;ratioP2;P2;SDS_P1;SDS_P2;PMS_P1;PMS_P2;Temp;Humidity;BMP_temperature;BMP_pressure;BME280_temperature;BME280_humidity;BME280_pressure;Samples;Min_cycle;Max_cycle;Signal;HPM_P1;HPM_P2
2023/10/30 00:00:35;;;;;;;1.27;0.20;;;13.50;99.90;;;;;;5096051;28;20047;-78
2023/10/30 00:03:01;;;;;;;1.35;0.28;;;13.50;99.90;;;;;;5095448;28;20024;-78
2023/10/30 00:05:26;;;;;;;2.58;0.38;;;13.50;99.90;;;;;;5095107;28;20046;-77
2023/10/30 00:07:53;;;;;;;2.15;0.20;;;13.40;99.90;;;;;;5096416;28;20024;-77
2023/10/30 00:10:19;;;;;;;1.08;0.25;;;13.50;99.90;;;;;;5095093;28;20346;-78
2023/10/30 00:12:44;;;;;;;0.95;0.30;;;13.40;99.90;;;;;;5096430;28;20077;-78
2023/10/30 00:15:10;;;;;;;0.30;0.30;;;13.40;99.90;;;;;;5096191;28;20036;-78
2023/10/30 00:17:36;;;;;;;1.13;0.40;;;13.40;99.90;;;;;;5096490;28;20469;-77
2023/10/30 00:20:01;;;;;;;2.03;0.20;;;13.40;99.90;;;;;;5095318;28;20114;-78
2023/10/30 00:22:27;;;;;;;0.65;0.20;;;13.40;99.90;;;;;;5094755;28;20492;-78
2023/10/30 00:24:52;;;;;;;0.68;0.20;;;13.40;99.90;;;;;;5096257;28;20024;-78
2023/10/30 00:27:18;;;;;;;1.15;0.20;;;13.30;99.90;;;;;;5093985;28;20024;-78
2023/10/30 00:29:44;;;;;;;1.98;0.30;;;13.30;99.90;;;;;;5095271;28;20461;-78
2023/10/30 00:32:09;;;;;;;1.40;0.63;;;13.30;99.90;;;;;;5095336;28;20028;-78
2023/10/30 00:34:35;;;;;;;0.82;0.30;;;13.20;99.90;;;;;;5094672;28;20457;-78
2023/10/30 00:37:01;;;;;;;1.58;0.30;;;13.30;99.90;;;;;;5096174;28;20047;-78
2023/10/30 00:39:30;;;;;;;4.22;0.43;;;13.30;99.90;;;;;;5094165;28;20024;-78
2023/10/30 00:41:55;;;;;;;4.88;0.77;;;13.20;99.90;;;;;;5096072;28;20020;-78
2023/10/30 00:44:21;;;;;;;1.27;0.30;;;13.20;99.90;;;;;;5095240;28;20073;-77
2023/10/30 00:46:47;;;;;;;3.38;0.50;;;13.20;99.90;;;;;;5094588;28;20532;-78
2023/10/30 00:49:12;;;;;;;2.90;0.50;;;13.20;99.90;;;;;;5094340;28;20073;-78
2023/10/30 00:51:38;;;;;;;1.10;0.45;;;13.20;99.90;;;;;;5095903;28;20059;-78
2023/10/30 00:54:03;;;;;;;5.80;0.60;;;13.10;99.90;;;;;;5096018;28;20450;-78
2023/10/30 00:56:29;;;;;;;3.65;0.47;;;13.10;99.90;;;;;;5094083;28;20028;-78
2023/10/30 00:58:55;;;;;;;2.08;0.40;;;13.10;99.90;;;;;;5094832;28;20153;-78
2023/10/30 01:01:23;;;;;;;2.80;0.60;;;13.10;99.90;;;;;;5095196;28;20089;-78
2023/10/30 01:03:48;;;;;;;1.20;0.30;;;13.10;99.90;;;;;;5094376;28;20035;-78
2023/10/30 01:06:14;;;;;;;3.78;0.50;;;13.10;99.90;;;;;;5093830;28;20028;-78
2023/10/30 01:08:40;;;;;;;2.22;0.50;;;13.10;99.90;;;;;;5094689;28;20465;-78
2023/10/30 01:11:05;;;;;;;1.65;0.30;;;13.10;99.90;;;;;;5094479;28;20376;-78
2023/10/30 01:13:32;;;;;;;1.50;0.30;;;13.10;99.90;;;;;;5094907;28;20027;-77
2023/10/30 01:15:58;;;;;;;2.42;0.47;;;13.10;99.90;;;;;;5093782;28;20032;-78
2023/10/30 01:18:24;;;;;;;1.45;0.35;;;13.10;99.90;;;;;;5093804;28;20119;-78
2023/10/30 01:20:49;;;;;;;3.15;0.40;;;13.10;99.90;;;;;;5094061;28;20460;-77
2023/10/30 01:23:16;;;;;;;3.35;0.50;;;13.10;99.90;;;;;;5093168;28;20517;-78
2023/10/30 01:25:41;;;;;;;3.15;0.50;;;13.10;99.90;;;;;;5093716;28;20028;-78
2023/10/30 01:28:07;;;;;;;2.05;0.32;;;13.10;99.90;;;;;;5094758;28;20031;-78
2023/10/30 01:30:33;;;;;;;2.55;0.43;;;13.00;99.90;;;;;;5094587;28;20098;-78
2023/10/30 01:32:59;;;;;;;0.93;0.63;;;13.00;99.90;;;;;;5093941;28;20035;-78
2023/10/30 01:35:25;;;;;;;1.85;0.47;;;13.10;99.90;;;;;;5094476;28;20051;-78
2023/10/30 01:37:51;;;;;;;2.50;0.50;;;13.00;99.90;;;;;;5095013;28;20083;-78
2023/10/30 01:40:16;;;;;;;1.30;0.30;;;13.10;99.90;;;;;;5094333;28;20020;-78
2023/10/30 01:42:42;;;;;;;0.93;0.40;;;13.00;99.90;;;;;;5093624;28;20024;-78
2023/10/30 01:45:08;;;;;;;1.00;0.28;;;13.10;99.90;;;;;;5093742;28;20023;-78
2023/10/30 01:47:34;;;;;;;4.82;0.40;;;13.10;99.90;;;;;;5093018;28;20028;-78
2023/10/30 01:50:01;;;;;;;1.15;0.30;;;13.10;99.90;;;;;;5093489;28;20054;-77
2023/10/30 01:52:29;;;;;;;2.15;0.50;;;13.10;99.90;;;;;;5093037;28;20020;-78
2023/10/30 01:54:55;;;;;;;1.23;0.68;;;13.00;99.90;;;;;;5093444;28;20028;-78
2023/10/30 01:57:22;;;;;;;1.20;0.35;;;13.10;99.90;;;;;;5094103;28;20039;-78
2023/10/30 01:59:50;;;;;;;2.03;0.50;;;13.00;99.90;;;;;;5094640;28;20021;-78
2023/10/30 02:02:19;;;;;;;0.73;0.40;;;13.00;99.90;;;;;;5093366;28;20491;-78
2023/10/30 02:04:44;;;;;;;0.82;0.22;;;13.10;99.90;;;;;;5093293;28;20461;-78
2023/10/30 02:07:11;;;;;;;1.35;0.40;;;13.10;99.90;;;;;;5094338;28;20043;-78
2023/10/30 02:09:37;;;;;;;1.50;0.30;;;13.10;99.90;;;;;;5092839;28;20024;-78
2023/10/30 02:12:03;;;;;;;1.25;0.35;;;13.10;99.90;;;;;;5094185;28;20028;-79
2023/10/30 02:14:29;;;;;;;3.35;0.30;;;13.10;99.90;;;;;;5093863;28;20024;-78
2023/10/30 02:16:54;;;;;;;0.93;0.30;;;13.10;99.90;;;;;;5093167;28;20499;-78
2023/10/30 02:19:26;;;;;;;0.52;0.40;;;13.10;99.90;;;;;;5092198;28;20036;-78
2023/10/30 02:21:52;;;;;;;1.88;0.50;;;13.10;99.90;;;;;;5094244;28;20096;-78
2023/10/30 02:24:19;;;;;;;1.35;0.43;;;13.10;99.90;;;;;;5094002;28;20106;-78
2023/10/30 02:26:48;;;;;;;1.60;0.38;;;13.10;99.90;;;;;;5093918;28;20110;-78
2023/10/30 02:29:14;;;;;;;0.65;0.20;;;13.10;99.90;;;;;;5092863;28;20495;-78
2023/10/30 02:31:40;;;;;;;0.80;0.35;;;13.10;99.90;;;;;;5092095;28;20469;-78
2023/10/30 02:34:05;;;;;;;1.33;0.32;;;13.10;99.90;;;;;;5094029;28;20033;-79
2023/10/30 02:36:31;;;;;;;3.05;0.38;;;13.10;99.90;;;;;;5093406;28;20109;-78
2023/10/30 02:38:57;;;;;;;1.08;0.22;;;13.10;99.90;;;;;;5092838;28;20109;-79
2023/10/30 02:41:23;;;;;;;2.53;0.40;;;13.10;99.90;;;;;;5092606;28;20453;-79
2023/10/30 02:43:48;;;;;;;2.10;0.45;;;13.10;99.90;;;;;;5094014;28;20028;-79
2023/10/30 02:46:14;;;;;;;0.30;0.15;;;13.00;99.90;;;;;;5094029;28;20068;-79
2023/10/30 02:48:39;;;;;;;2.35;0.40;;;13.10;99.90;;;;;;5092811;28;20040;-79
2023/10/30 02:51:05;;;;;;;1.38;0.40;;;13.00;99.90;;;;;;5092845;28;20027;-79
2023/10/30 02:53:31;;;;;;;1.67;0.30;;;13.00;99.90;;;;;;5092423;28;20165;-79
2023/10/30 02:55:59;;;;;;;0.32;0.20;;;13.00;99.90;;;;;;5092622;28;20028;-79
2023/10/30 02:58:25;;;;;;;1.52;0.20;;;13.00;99.90;;;;;;5093272;28;20055;-79
2023/10/30 03:00:53;;;;;;;0.85;0.30;;;13.00;99.90;;;;;;5092971;28;20085;-79
2023/10/30 03:03:19;;;;;;;1.48;0.30;;;13.00;99.90;;;;;;5092946;28;20030;-79
2023/10/30 03:05:45;;;;;;;4.82;0.45;;;13.00;99.90;;;;;;5094015;28;20103;-79
2023/10/30 03:08:11;;;;;;;0.63;0.40;;;13.00;99.90;;;;;;5092810;28;20479;-78
2023/10/30 03:10:36;;;;;;;1.35;0.20;;;13.00;99.90;;;;;;5093380;28;20030;-79
2023/10/30 03:13:02;;;;;;;1.08;0.35;;;13.00;99.90;;;;;;5092697;28;20032;-78
2023/10/30 03:15:27;;;;;;;1.80;0.40;;;13.00;99.90;;;;;;5092070;28;20032;-79
2023/10/30 03:17:53;;;;;;;1.48;0.20;;;13.00;99.90;;;;;;5093767;28;20036;-78
2023/10/30 03:20:18;;;;;;;0.90;0.30;;;13.00;99.90;;;;;;5092508;28;20020;-78
2023/10/30 03:22:44;;;;;;;0.40;0.20;;;13.00;99.90;;;;;;5093217;28;20479;-78
2023/10/30 03:25:10;;;;;;;3.30;0.47;;;13.00;99.90;;;;;;5093927;28;20067;-78
2023/10/30 03:27:35;;;;;;;2.30;0.57;;;13.00;99.90;;;;;;5092246;28;20035;-79
2023/10/30 03:30:01;;;;;;;3.40;0.50;;;13.00;99.90;;;;;;5092722;28;20056;-79
2023/10/30 03:32:27;;;;;;;1.85;0.30;;;13.00;99.90;;;;;;5092976;28;20032;-79
2023/10/30 03:34:52;;;;;;;1.88;0.85;;;12.90;99.90;;;;;;5093544;28;20034;-78
2023/10/30 03:37:18;;;;;;;2.15;0.30;;;12.90;99.90;;;;;;5092527;28;20589;-78
2023/10/30 03:39:44;;;;;;;3.90;0.43;;;12.90;99.90;;;;;;5092018;28;20024;-78
2023/10/30 03:42:10;;;;;;;1.35;0.40;;;12.90;99.90;;;;;;5093501;28;20102;-78
2023/10/30 03:44:36;;;;;;;1.45;0.40;;;12.90;99.90;;;;;;5091906;28;20059;-78
2023/10/30 03:47:01;;;;;;;3.13;0.52;;;13.00;99.90;;;;;;5092132;28;20032;-78
2023/10/30 03:49:27;;;;;;;1.45;0.30;;;13.00;99.90;;;;;;5091987;28;20047;-78
2023/10/30 03:51:52;;;;;;;3.30;0.35;;;13.00;99.90;;;;;;5091743;28;20030;-77
2023/10/30 03:54:18;;;;;;;3.47;0.50;;;13.00;99.90;;;;;;5092343;28;20115;-78
2023/10/30 03:56:44;;;;;;;1.33;0.20;;;13.00;99.90;;;;;;5091696;28;20473;-78
2023/10/30 03:59:10;;;;;;;0.82;0.40;;;13.00;99.90;;;;;;5092430;28;20028;-78
2023/10/30 04:01:36;;;;;;;0.60;0.32;;;13.00;99.90;;;;;;5093383;28;20388;-78
2023/10/30 04:04:02;;;;;;;0.77;0.22;;;12.90;99.90;;;;;;5096598;28;20051;-78
2023/10/30 04:06:28;;;;;;;2.13;0.20;;;13.00;99.90;;;;;;5095247;28;20380;-78
2023/10/30 04:08:54;;;;;;;2.20;0.47;;;13.00;99.90;;;;;;5095578;28;20031;-77
2023/10/30 04:11:19;;;;;;;0.80;0.30;;;13.00;99.90;;;;;;5096685;28;20028;-78
2023/10/30 04:13:45;;;;;;;2.30;0.40;;;13.00;99.90;;;;;;5095047;28;20024;-78
2023/10/30 04:16:15;;;;;;;2.33;0.45;;;13.00;99.90;;;;;;5096590;28;20039;-78
2023/10/30 04:18:41;;;;;;;1.30;0.30;;;13.00;99.90;;;;;;5094888;28;20032;-78
2023/10/30 04:21:06;;;;;;;1.08;0.17;;;13.00;99.90;;;;;;5096382;28;20487;-78
2023/10/30 04:23:32;;;;;;;3.58;0.30;;;13.00;99.90;;;;;;5094914;28;20114;-77
2023/10/30 04:25:58;;;;;;;0.98;0.38;;;13.00;99.90;;;;;;5095182;28;20024;-78
2023/10/30 04:28:23;;;;;;;0.65;0.28;;;12.90;99.90;;;;;;5095506;28;20526;-78
2023/10/30 04:30:49;;;;;;;0.98;0.20;;;13.00;99.90;;;;;;5095953;28;20020;-78
2023/10/30 04:33:15;;;;;;;1.75;0.30;;;12.90;99.90;;;;;;5096284;28;20027;-78
2023/10/30 04:35:41;;;;;;;2.15;0.30;;;12.90;99.90;;;;;;5095602;28;20063;-77
2023/10/30 04:38:07;;;;;;;1.15;0.30;;;12.90;99.90;;;;;;5096197;28;20059;-78
2023/10/30 04:40:33;;;;;;;0.82;0.30;;;13.00;99.90;;;;;;5095772;28;20027;-77
2023/10/30 04:42:58;;;;;;;0.43;0.20;;;12.90;99.90;;;;;;5094856;28;20024;-78
2023/10/30 04:45:24;;;;;;;1.00;0.28;;;13.00;99.90;;;;;;5095089;28;20024;-77
2023/10/30 04:47:50;;;;;;;1.55;0.20;;;13.00;99.90;;;;;;5095299;28;20043;-78
2023/10/30 04:50:16;;;;;;;1.38;0.40;;;13.00;99.90;;;;;;5095087;28;20031;-78
2023/10/30 04:52:41;;;;;;;4.43;0.43;;;13.00;99.90;;;;;;5094050;28;20028;-76
2023/10/30 04:55:07;;;;;;;2.40;0.30;;;12.90;99.90;;;;;;5094861;28;20028;-77
2023/10/30 04:57:33;;;;;;;0.45;0.20;;;12.90;99.90;;;;;;5094282;28;20035;-78
2023/10/30 04:59:58;;;;;;;0.75;0.32;;;12.90;99.90;;;;;;5095802;28;20026;-78
2023/10/30 05:02:24;;;;;;;1.35;0.10;;;12.90;99.90;;;;;;5094040;28;20362;-78
2023/10/30 05:04:50;;;;;;;1.30;0.75;;;12.90;99.90;;;;;;5095230;28;20032;-78
2023/10/30 05:07:15;;;;;;;0.52;0.22;;;13.00;99.90;;;;;;5094423;28;20388;-78
2023/10/30 05:09:41;;;;;;;1.15;0.20;;;13.00;99.90;;;;;;5094946;28;20031;-78
2023/10/30 05:12:07;;;;;;;2.35;0.10;;;13.00;99.90;;;;;;5093546;28;20073;-78
2023/10/30 05:14:32;;;;;;;2.90;0.20;;;13.00;99.90;;;;;;5094732;28;20030;-78
2023/10/30 05:16:58;;;;;;;1.15;0.30;;;13.00;99.90;;;;;;5094037;28;20481;-78
2023/10/30 05:19:23;;;;;;;2.05;0.20;;;13.00;99.90;;;;;;5094643;28;20024;-78
2023/10/30 05:21:49;;;;;;;1.75;0.17;;;13.00;99.90;;;;;;5095002;28;20028;-79
2023/10/30 05:24:15;;;;;;;1.17;0.10;;;13.00;99.90;;;;;;5094307;28;20388;-78
2023/10/30 05:26:40;;;;;;;0.70;0.20;;;13.00;99.90;;;;;;5093391;28;20039;-78
2023/10/30 05:29:06;;;;;;;0.70;0.10;;;13.00;99.90;;;;;;5094025;28;20115;-78
2023/10/30 05:31:31;;;;;;;0.25;0.10;;;13.00;99.90;;;;;;5093616;28;20051;-78
2023/10/30 05:33:57;;;;;;;0.80;0.20;;;13.00;99.90;;;;;;5094170;28;20030;-78
2023/10/30 05:36:23;;;;;;;0.50;0.10;;;13.00;99.90;;;;;;5093819;28;20055;-78
2023/10/30 05:38:49;;;;;;;1.38;0.20;;;13.00;99.90;;;;;;5093541;28;20290;-78
2023/10/30 05:41:15;;;;;;;0.10;0.10;;;13.00;99.90;;;;;;5094951;28;20024;-78
2023/10/30 05:43:40;;;;;;;0.50;0.20;;;13.00;99.90;;;;;;5093139;28;20028;-78
2023/10/30 05:46:06;;;;;;;0.65;0.20;;;13.00;99.90;;;;;;5093609;28;20039;-78
2023/10/30 05:48:32;;;;;;;0.65;0.20;;;13.00;99.90;;;;;;5094128;28;20500;-79
2023/10/30 05:50:57;;;;;;;1.30;0.20;;;13.00;99.90;;;;;;5093948;28;20077;-78
2023/10/30 05:53:23;;;;;;;1.85;0.28;;;13.00;99.90;;;;;;5093563;28;20416;-78
2023/10/30 05:55:49;;;;;;;1.70;0.20;;;13.00;99.90;;;;;;5093270;28;20035;-78
2023/10/30 05:58:15;;;;;;;0.47;0.20;;;13.00;99.90;;;;;;5093615;28;20032;-78
2023/10/30 06:00:40;;;;;;;2.00;0.30;;;13.00;99.90;;;;;;5092941;28;20051;-78
2023/10/30 06:03:09;;;;;;;2.58;0.20;;;13.00;99.90;;;;;;5093659;28;20032;-78
2023/10/30 06:05:35;;;;;;;4.97;0.25;;;12.90;99.90;;;;;;5094133;28;20036;-78
2023/10/30 06:08:01;;;;;;;1.58;0.30;;;12.90;99.90;;;;;;5093414;28;20028;-78
2023/10/30 06:10:26;;;;;;;1.25;0.20;;;12.90;99.90;;;;;;5093465;28;20533;-78
2023/10/30 06:12:52;;;;;;;1.50;0.30;;;12.90;99.90;;;;;;5092864;28;20059;-78
2023/10/30 06:15:18;;;;;;;0.73;0.20;;;13.00;99.90;;;;;;5093304;28;20028;-79
2023/10/30 06:17:44;;;;;;;2.05;0.30;;;13.00;99.90;;;;;;5092662;28;20123;-79
2023/10/30 06:20:10;;;;;;;2.25;0.28;;;13.00;99.90;;;;;;5093392;28;20028;-79
2023/10/30 06:22:35;;;;;;;0.55;0.20;;;13.00;99.90;;;;;;5092657;28;20074;-79
2023/10/30 06:25:01;;;;;;;0.50;0.20;;;13.00;99.90;;;;;;5092458;28;20028;-79
2023/10/30 06:27:27;;;;;;;1.35;0.32;;;13.00;99.90;;;;;;5093846;28;20047;-78
2023/10/30 06:29:53;;;;;;;1.58;0.30;;;13.00;99.90;;;;;;5092322;28;20031;-78
2023/10/30 06:32:19;;;;;;;2.28;0.40;;;13.00;99.90;;;;;;5093025;28;20024;-77
2023/10/30 06:34:45;;;;;;;0.77;0.20;;;12.90;99.90;;;;;;5092288;28;20396;-78
2023/10/30 06:37:10;;;;;;;1.35;0.30;;;12.90;99.90;;;;;;5092478;28;20055;-78
2023/10/30 06:39:37;;;;;;;1.80;0.45;;;12.90;99.90;;;;;;5092419;28;20377;-78
2023/10/30 06:42:02;;;;;;;0.50;0.30;;;13.00;99.90;;;;;;5092936;28;20028;-78
2023/10/30 06:44:28;;;;;;;1.02;0.20;;;13.00;99.90;;;;;;5092814;28;20031;-78
2023/10/30 06:46:55;;;;;;;1.50;0.45;;;13.00;99.90;;;;;;5092192;28;20385;-78
2023/10/30 06:49:21;;;;;;;1.35;0.30;;;12.90;99.90;;;;;;5092880;28;20073;-78
2023/10/30 06:51:47;;;;;;;1.30;0.30;;;13.00;99.90;;;;;;5092084;28;20419;-78
2023/10/30 06:54:13;;;;;;;1.63;0.32;;;13.00;99.90;;;;;;5092776;28;20035;-78
2023/10/30 06:56:39;;;;;;;2.00;0.25;;;13.00;99.90;;;;;;5093085;28;20031;-78
2023/10/30 06:59:05;;;;;;;1.20;0.32;;;13.00;99.90;;;;;;5092698;28;20073;-78
2023/10/30 07:01:45;;;;;;;0.80;0.30;;;13.10;99.90;;;;;;5092787;28;20031;-78
2023/10/30 07:04:15;;;;;;;1.08;0.22;;;13.00;99.90;;;;;;5092644;28;20028;-78
2023/10/30 07:06:43;;;;;;;1.48;0.40;;;13.00;99.90;;;;;;5092885;28;20028;-78
2023/10/30 07:09:09;;;;;;;1.98;0.25;;;13.10;99.90;;;;;;5092212;28;20024;-78
2023/10/30 07:11:36;;;;;;;1.10;0.45;;;13.10;99.90;;;;;;5086675;28;20032;-77
2023/10/30 07:14:02;;;;;;;0.47;0.30;;;13.10;99.90;;;;;;5074815;28;20111;-77
2023/10/30 07:16:32;;;;;;;1.27;0.40;;;13.10;99.90;;;;;;5071776;28;20045;-77
2023/10/30 07:18:58;;;;;;;0.50;0.43;;;13.20;99.90;;;;;;5071854;28;20025;-79
2023/10/30 07:21:25;;;;;;;2.20;0.40;;;13.20;99.90;;;;;;5073265;28;20059;-78
2023/10/30 07:23:50;;;;;;;3.90;0.55;;;13.20;99.90;;;;;;5085650;28;20070;-78
2023/10/30 07:26:17;;;;;;;1.70;0.30;;;13.30;99.90;;;;;;5092488;28;20024;-78
2023/10/30 07:28:43;;;;;;;1.27;0.43;;;13.30;99.90;;;;;;5091961;28;20461;-78
2023/10/30 07:31:09;;;;;;;3.13;0.50;;;13.30;99.90;;;;;;5092417;28;20354;-78
2023/10/30 07:33:34;;;;;;;2.25;0.47;;;13.30;99.90;;;;;;5092394;28;20121;-79
2023/10/30 07:36:01;;;;;;;0.80;0.47;;;13.30;99.90;;;;;;5094191;28;20040;-78
2023/10/30 07:38:30;;;;;;;1.42;0.52;;;13.30;99.90;;;;;;5096241;28;20127;-78
2023/10/30 07:40:55;;;;;;;0.40;0.32;;;13.40;99.90;;;;;;5095555;28;20056;-78
2023/10/30 07:43:21;;;;;;;0.73;0.50;;;13.40;99.90;;;;;;5097258;28;20112;-78
2023/10/30 07:45:50;;;;;;;1.90;0.30;;;13.40;99.90;;;;;;5095517;28;20496;-78
2023/10/30 07:48:16;;;;;;;1.02;0.40;;;13.40;99.90;;;;;;5096071;28;20051;-78
2023/10/30 07:50:43;;;;;;;2.55;0.40;;;13.50;99.90;;;;;;5095311;28;20509;-78
2023/10/30 07:53:09;;;;;;;1.15;0.40;;;13.50;99.90;;;;;;5097159;28;20100;-79
2023/10/30 07:55:36;;;;;;;2.05;0.40;;;13.70;99.90;;;;;;5096887;28;20047;-79
2023/10/30 07:58:06;;;;;;;1.60;0.40;;;13.70;99.90;;;;;;5095620;28;20036;-78
2023/10/30 08:00:35;;;;;;;0.40;0.40;;;13.80;99.90;;;;;;5095987;28;20020;-78
2023/10/30 08:03:00;;;;;;;0.50;0.40;;;13.80;99.90;;;;;;5095169;28;20024;-78
2023/10/30 08:05:27;;;;;;;1.05;0.50;;;13.80;99.90;;;;;;5092498;28;20031;-78
2023/10/30 08:07:52;;;;;;;2.10;0.50;;;13.90;99.90;;;;;;5085516;28;20031;-78
2023/10/30 08:10:18;;;;;;;1.35;0.52;;;13.90;99.90;;;;;;5080729;28;20024;-78
2023/10/30 08:12:44;;;;;;;1.40;0.68;;;13.90;99.90;;;;;;5085456;28;20051;-78
2023/10/30 08:15:10;;;;;;;4.15;0.85;;;13.90;99.90;;;;;;5084448;28;20027;-79
2023/10/30 08:17:37;;;;;;;1.35;0.80;;;13.90;99.90;;;;;;5087423;28;20122;-78
2023/10/30 08:20:04;;;;;;;2.38;1.00;;;13.90;99.90;;;;;;5087768;28;20112;-79
2023/10/30 08:22:30;;;;;;;1.55;0.93;;;13.90;99.90;;;;;;5085922;28;20032;-79
2023/10/30 08:24:55;;;;;;;1.90;1.00;;;13.90;99.90;;;;;;5085718;28;20031;-79
2023/10/30 08:27:21;;;;;;;1.50;0.90;;;14.00;99.90;;;;;;5083693;28;20028;-79
2023/10/30 08:29:47;;;;;;;2.33;0.85;;;14.10;99.90;;;;;;5084348;28;20076;-79
2023/10/30 08:32:16;;;;;;;1.85;0.90;;;14.10;99.90;;;;;;5095120;28;20020;-80
2023/10/30 08:34:41;;;;;;;2.30;0.85;;;14.10;99.90;;;;;;5093689;28;20020;-80
2023/10/30 08:37:07;;;;;;;2.05;0.80;;;14.10;99.90;;;;;;5104043;28;20277;-81
2023/10/30 08:39:32;;;;;;;1.77;0.77;;;14.10;99.90;;;;;;5108672;28;20024;-80
2023/10/30 08:41:58;;;;;;;1.35;0.70;;;14.10;99.90;;;;;;5093780;28;20024;-79
2023/10/30 08:44:24;;;;;;;1.83;0.68;;;14.10;99.90;;;;;;5088031;28;20029;-79
2023/10/30 08:46:50;;;;;;;3.15;0.70;;;14.20;99.90;;;;;;5108323;28;20031;-79
2023/10/30 08:49:16;;;;;;;1.55;0.80;;;14.10;99.90;;;;;;5099949;28;20023;-81
2023/10/30 08:51:42;;;;;;;1.40;0.63;;;14.20;99.90;;;;;;5115525;28;20073;-81
2023/10/30 08:54:08;;;;;;;1.30;0.90;;;14.20;99.90;;;;;;5103541;28;20107;-81
2023/10/30 08:56:34;;;;;;;3.13;1.02;;;14.20;99.90;;;;;;5110807;28;20119;-81
2023/10/30 08:58:59;;;;;;;1.60;0.80;;;14.20;99.90;;;;;;5097450;28;20152;-82
2023/10/30 09:01:26;;;;;;;2.22;0.70;;;14.20;99.90;;;;;;5114830;28;20061;-82
2023/10/30 09:03:52;;;;;;;3.33;0.95;;;14.20;99.90;;;;;;5111811;28;20076;-81
2023/10/30 09:06:18;;;;;;;1.48;0.90;;;14.30;99.90;;;;;;5106968;28;20039;-81
2023/10/30 09:08:44;;;;;;;1.15;0.80;;;14.30;99.90;;;;;;5098793;28;20028;-82
2023/10/30 09:11:10;;;;;;;1.90;0.45;;;14.30;99.90;;;;;;5110903;28;20468;-83
2023/10/30 09:13:35;;;;;;;2.63;0.65;;;14.40;99.90;;;;;;5094612;28;20024;-83
2023/10/30 09:16:01;;;;;;;1.50;0.80;;;14.40;99.90;;;;;;5103995;28;20034;-81
2023/10/30 09:18:26;;;;;;;1.27;0.85;;;14.40;99.90;;;;;;5100714;28;20126;-82
2023/10/30 09:20:52;;;;;;;2.80;0.77;;;14.60;99.90;;;;;;5112317;28;20101;-82
2023/10/30 09:23:18;;;;;;;0.70;0.55;;;14.60;99.90;;;;;;5110111;28;20443;-80
2023/10/30 09:25:43;;;;;;;1.08;0.68;;;14.70;99.90;;;;;;5101545;28;20030;-82
2023/10/30 09:28:09;;;;;;;3.42;0.52;;;14.80;99.90;;;;;;5102892;28;20036;-83
2023/10/30 09:30:34;;;;;;;0.55;0.52;;;14.90;99.90;;;;;;5109034;28;20027;-79
2023/10/30 09:33:00;;;;;;;4.25;0.68;;;15.00;99.90;;;;;;5097192;28;20055;-79
2023/10/30 09:35:30;;;;;;;2.25;0.63;;;15.10;99.90;;;;;;5103834;28;20027;-80
2023/10/30 09:37:58;;;;;;;4.28;1.00;;;15.10;99.90;;;;;;5103334;28;20044;-79
2023/10/30 09:40:26;;;;;;;1.75;1.10;;;15.20;99.90;;;;;;5108703;28;20363;-80
2023/10/30 09:42:52;;;;;;;2.85;1.33;;;15.30;99.90;;;;;;5096677;28;20389;-79
2023/10/30 09:45:23;;;;;;;4.72;1.63;;;15.30;99.90;;;;;;5114033;28;20028;-79
2023/10/30 09:47:54;;;;;;;2.83;1.47;;;15.30;99.90;;;;;;5113563;28;20042;-79
2023/10/30 09:50:21;;;;;;;3.67;1.50;;;15.40;99.90;;;;;;5100681;28;20028;-78
2023/10/30 09:52:51;;;;;;;3.05;1.52;;;15.40;99.90;;;;;;5109597;28;20020;-79
2023/10/30 09:55:24;;;;;;;3.97;1.70;;;15.50;99.90;;;;;;5109278;28;20067;-79
2023/10/30 09:57:53;;;;;;;2.92;1.50;;;15.50;99.90;;;;;;5092348;28;20032;-79
2023/10/30 10:00:20;;;;;;;3.45;1.55;;;15.50;99.90;;;;;;5105456;28;20027;-79
2023/10/30 10:02:46;;;;;;;1.90;1.45;;;15.50;99.90;;;;;;5112707;28;20032;-79
2023/10/30 10:05:13;;;;;;;2.97;1.98;;;15.60;99.90;;;;;;5090817;28;20026;-79
2023/10/30 10:07:40;;;;;;;2.83;1.42;;;15.50;99.90;;;;;;5113267;28;20027;-78
2023/10/30 10:10:08;;;;;;;2.22;1.45;;;15.60;99.90;;;;;;5102009;28;20381;-79
2023/10/30 10:12:34;;;;;;;4.20;1.98;;;15.60;99.90;;;;;;5108108;28;20030;-79
2023/10/30 10:15:06;;;;;;;2.60;1.30;;;15.60;99.90;;;;;;5095847;28;20032;-79
2023/10/30 10:17:32;;;;;;;3.03;1.50;;;15.70;99.90;;;;;;5113457;28;20048;-80
2023/10/30 10:20:03;;;;;;;4.35;1.38;;;15.70;99.90;;;;;;5103901;28;20032;-79
2023/10/30 10:22:32;;;;;;;4.05;1.30;;;15.90;99.90;;;;;;5108381;28;20023;-79
2023/10/30 10:25:00;;;;;;;4.53;1.73;;;15.80;99.90;;;;;;5095837;28;20025;-79
2023/10/30 10:27:27;;;;;;;2.55;1.33;;;15.80;99.90;;;;;;5114412;28;20135;-79
2023/10/30 10:29:56;;;;;;;4.78;1.35;;;15.90;99.90;;;;;;5109184;28;20027;-78
2023/10/30 10:32:26;;;;;;;2.72;1.50;;;15.90;99.90;;;;;;5099881;28;20030;-79
2023/10/30 10:34:53;;;;;;;3.92;1.42;;;16.00;99.90;;;;;;5092252;28;20110;-78
2023/10/30 10:37:19;;;;;;;4.30;1.60;;;16.10;99.90;;;;;;5093821;28;20052;-79
2023/10/30 10:39:50;;;;;;;2.97;1.65;;;16.10;99.90;;;;;;5092241;28;20138;-79
2023/10/30 10:42:20;;;;;;;3.35;1.40;;;16.10;99.90;;;;;;5105125;28;20023;-79
2023/10/30 10:44:48;;;;;;;3.78;1.60;;;16.10;99.90;;;;;;5095781;28;20036;-79
2023/10/30 10:47:14;;;;;;;3.75;1.63;;;16.10;99.90;;;;;;5073363;28;20033;-79
2023/10/30 10:49:40;;;;;;;3.17;1.52;;;16.10;99.90;;;;;;5072161;28;20550;-79
2023/10/30 10:52:09;;;;;;;7.60;2.10;;;16.10;99.90;;;;;;5072654;28;20021;-78
2023/10/30 10:54:44;;;;;;;2.33;1.58;;;16.10;99.90;;;;;;5101915;28;20076;-79
2023/10/30 10:57:17;;;;;;;1.65;1.40;;;16.20;99.90;;;;;;5093880;28;20042;-79
2023/10/30 10:59:45;;;;;;;2.85;1.30;;;16.20;99.90;;;;;;5099942;28;20055;-79
2023/10/30 11:02:20;;;;;;;2.22;1.33;;;16.20;99.90;;;;;;5100782;28;20457;-79
2023/10/30 11:04:47;;;;;;;4.18;1.52;;;16.20;99.90;;;;;;5098654;28;20484;-78
2023/10/30 11:07:15;;;;;;;1.98;1.38;;;16.20;99.90;;;;;;5079106;28;20127;-79
2023/10/30 11:09:50;;;;;;;3.60;1.60;;;16.20;99.90;;;;;;5106483;28;20052;-79
2023/10/30 11:12:38;;;;;;;1.77;1.55;;;16.10;99.90;;;;;;5109125;28;20019;-80
2023/10/30 11:15:16;;;;;;;3.58;1.40;;;16.10;99.90;;;;;;5100237;28;20571;-79
2023/10/30 11:18:05;;;;;;;5.53;1.63;;;16.10;99.90;;;;;;5109966;28;20032;-80
2023/10/30 11:20:30;;;;;;;3.65;1.17;;;16.10;99.90;;;;;;5085991;28;20158;-79
2023/10/30 11:22:56;;;;;;;2.53;1.42;;;16.10;99.90;;;;;;5114048;28;20428;-79
2023/10/30 11:25:44;;;;;;;3.67;1.45;;;16.10;99.90;;;;;;5112721;28;20024;-79
2023/10/30 11:28:10;;;;;;;3.05;1.52;;;16.10;99.90;;;;;;5090128;28;20085;-79
2023/10/30 11:30:43;;;;;;;12.07;2.05;;;16.10;99.90;;;;;;5092477;28;20415;-79
2023/10/30 11:33:22;;;;;;;2.92;1.40;;;16.10;99.90;;;;;;5086729;28;20023;-79
2023/10/30 11:36:18;;;;;;;3.72;1.70;;;16.10;99.90;;;;;;5091489;28;20020;-78
2023/10/30 11:38:59;;;;;;;4.00;1.40;;;16.10;99.90;;;;;;5083764;28;20040;-79
2023/10/30 11:41:27;;;;;;;2.28;1.23;;;16.10;99.90;;;;;;5087755;28;20020;-80
2023/10/30 11:44:10;;;;;;;1.35;1.25;;;16.10;99.90;;;;;;5084409;28;20035;-79
2023/10/30 11:46:44;;;;;;;2.35;1.35;;;16.10;99.90;;;;;;5110022;28;20042;-78
2023/10/30 11:49:18;;;;;;;3.25;1.10;;;16.10;99.90;;;;;;5113544;28;20098;-79
2023/10/30 11:51:49;;;;;;;3.78;1.40;;;16.10;99.90;;;;;;5088721;28;20029;-79
2023/10/30 11:54:32;;;;;;;2.83;1.40;;;16.10;99.90;;;;;;5095190;28;20032;-79
2023/10/30 11:57:00;;;;;;;2.53;1.40;;;16.20;99.90;;;;;;5089795;28;20036;-79
2023/10/30 11:59:29;;;;;;;2.50;1.35;;;16.20;99.90;;;;;;5087948;28;20081;-79
2023/10/30 12:01:58;;;;;;;2.38;1.38;;;16.30;99.90;;;;;;5085517;28;20046;-79
2023/10/30 12:04:25;;;;;;;2.60;1.35;;;16.30;99.90;;;;;;5089424;28;20532;-79
2023/10/30 12:06:51;;;;;;;2.17;1.25;;;16.30;99.90;;;;;;5088458;28;20288;-78
2023/10/30 12:09:17;;;;;;;2.05;1.33;;;16.40;99.90;;;;;;5088386;28;20078;-79
2023/10/30 12:11:44;;;;;;;2.80;1.35;;;16.40;99.90;;;;;;5085318;28;20024;-79
2023/10/30 12:14:17;;;;;;;4.47;1.30;;;16.40;99.90;;;;;;5083138;28;20028;-79
2023/10/30 12:16:50;;;;;;;2.58;1.27;;;16.30;99.90;;;;;;5093667;28;20036;-80
2023/10/30 12:19:22;;;;;;;3.30;1.20;;;16.30;99.90;;;;;;5084081;28;20027;-80
2023/10/30 12:21:49;;;;;;;3.03;1.48;;;16.30;99.90;;;;;;5105518;28;20031;-79
2023/10/30 12:24:16;;;;;;;2.17;1.45;;;16.30;99.90;;;;;;5095285;28;20047;-80
2023/10/30 12:26:42;;;;;;;2.63;1.50;;;16.30;99.90;;;;;;5112408;28;20038;-80
2023/10/30 12:29:08;;;;;;;3.17;1.40;;;16.30;99.90;;;;;;5095163;28;20718;-80
2023/10/30 12:31:36;;;;;;;2.92;1.35;;;16.30;99.90;;;;;;5101575;28;20357;-80
2023/10/30 12:34:16;;;;;;;2.35;1.42;;;16.20;99.90;;;;;;5103948;28;20024;-80
2023/10/30 12:36:42;;;;;;;3.03;1.60;;;16.30;99.90;;;;;;5110794;28;20052;-80
2023/10/30 12:39:17;;;;;;;2.33;1.20;;;16.30;99.90;;;;;;5095695;28;20028;-84
2023/10/30 12:41:44;;;;;;;4.10;1.30;;;16.30;99.90;;;;;;5095239;28;20587;-83
2023/10/30 12:44:10;;;;;;;2.35;1.48;;;16.40;99.90;;;;;;5107065;28;20051;-86
2023/10/30 12:46:36;;;;;;;3.80;1.40;;;16.40;99.90;;;;;;5100083;28;20481;-85